BAW104 TNCM-KJFK
Flight info
| Callsign | BAW104 |
|---|---|
| Flight time | N/A |
| Altitude | 40000 |
| Route | TRNKY DCT CAFFE DCT THANK L456 DARUX L459 SAVIK DCT |
| Aircraft | B744/H-VGD/A |
Departure
| Time | N/A |
|---|---|
| Airport | Princess Juliana International Airport (TNCM) |
Arrival
| Time | 2026-05-04 13:08 |
|---|---|
| Airport | John F. Kennedy International Airport (KJFK) |
| Time | Latitude | Longitude | Altitude | Speed | Heading |
|---|---|---|---|---|---|
| 2026-05-04 10:51 | 30.52362 | -68.03032 | 40130 ft | 489 kts | 336° |
| 2026-05-04 10:52 | 30.55692 | -68.03822 | 40129 ft | 489 kts | 336° |
| 2026-05-04 10:52 | 30.62383 | -68.05409 | 40131 ft | 493 kts | 336° |
| 2026-05-04 10:54 | 30.89281 | -68.11816 | 40132 ft | 494 kts | 336° |
| 2026-05-04 10:56 | 31.16240 | -68.18266 | 40132 ft | 494 kts | 336° |
| 2026-05-04 10:57 | 31.22984 | -68.19890 | 40133 ft | 494 kts | 335° |
| 2026-05-04 10:57 | 31.29676 | -68.21504 | 40133 ft | 494 kts | 335° |
| 2026-05-04 10:58 | 31.36448 | -68.23138 | 40134 ft | 494 kts | 335° |
| 2026-05-04 10:58 | 31.43159 | -68.24758 | 40134 ft | 496 kts | 335° |
| 2026-05-04 10:59 | 31.49936 | -68.26396 | 40133 ft | 496 kts | 335° |
| 2026-05-04 10:59 | 31.56674 | -68.28030 | 40135 ft | 495 kts | 335° |
| 2026-05-04 11:00 | 31.63423 | -68.29668 | 40134 ft | 493 kts | 335° |
| 2026-05-04 11:02 | 31.90337 | -68.36204 | 40135 ft | 493 kts | 335° |
| 2026-05-04 11:05 | 32.40687 | -68.48551 | 40134 ft | 493 kts | 334° |
| 2026-05-04 11:06 | 32.47385 | -68.50205 | 40119 ft | 493 kts | 334° |
| 2026-05-04 11:06 | 32.54071 | -68.51858 | 40133 ft | 492 kts | 334° |
| 2026-05-04 11:10 | 33.00980 | -68.63526 | 40135 ft | 493 kts | 333° |
| 2026-05-04 11:12 | 33.27854 | -68.70267 | 40143 ft | 493 kts | 333° |
| 2026-05-04 11:12 | 33.34560 | -68.71956 | 40143 ft | 493 kts | 333° |
| 2026-05-04 11:13 | 33.41291 | -68.73654 | 40143 ft | 493 kts | 333° |
| 2026-05-04 11:13 | 33.48002 | -68.75350 | 40142 ft | 494 kts | 333° |
| 2026-05-04 11:14 | 33.49105 | -68.75629 | 40142 ft | 494 kts | 333° |
| 2026-05-04 11:16 | 33.81616 | -68.83876 | 40140 ft | 494 kts | 333° |
| 2026-05-04 11:16 | 33.88338 | -68.85590 | 40140 ft | 497 kts | 333° |
| 2026-05-04 11:17 | 33.95168 | -68.87338 | 40139 ft | 498 kts | 333° |
| 2026-05-04 11:19 | 34.22176 | -68.94280 | 40138 ft | 496 kts | 333° |
| 2026-05-04 11:19 | 34.28888 | -68.96017 | 40136 ft | 496 kts | 333° |
| 2026-05-04 11:20 | 34.35667 | -68.97775 | 40136 ft | 496 kts | 333° |
| 2026-05-04 11:20 | 34.42388 | -68.99520 | 40135 ft | 496 kts | 333° |
| 2026-05-04 11:22 | 34.68980 | -69.06420 | 40134 ft | 497 kts | 333° |
| 2026-05-04 11:23 | 34.75752 | -69.08187 | 40136 ft | 501 kts | 333° |
| 2026-05-04 11:25 | 34.99634 | -69.14448 | 40097 ft | 501 kts | 333° |
| 2026-05-04 11:25 | 35.06450 | -69.16241 | 40096 ft | 503 kts | 333° |
| 2026-05-04 11:27 | 35.37260 | -69.24387 | 40086 ft | 504 kts | 334° |
| 2026-05-04 11:28 | 35.44132 | -69.26213 | 40092 ft | 506 kts | 334° |
| 2026-05-04 11:28 | 35.51015 | -69.28045 | 40092 ft | 506 kts | 334° |
| 2026-05-04 11:29 | 35.57867 | -69.29871 | 40091 ft | 506 kts | 334° |
| 2026-05-04 11:29 | 35.64757 | -69.31711 | 40089 ft | 506 kts | 334° |
| 2026-05-04 11:33 | 36.11779 | -69.44356 | 40077 ft | 497 kts | 334° |
| 2026-05-04 11:33 | 36.14957 | -69.45665 | 40081 ft | 469 kts | 321° |
| 2026-05-04 11:33 | 36.17733 | -69.47607 | 40085 ft | 454 kts | 314° |
| 2026-05-04 11:34 | 36.22922 | -69.52080 | 40070 ft | 452 kts | 310° |
| 2026-05-04 11:34 | 36.27868 | -69.56866 | 40069 ft | 450 kts | 309° |
| 2026-05-04 11:35 | 36.32776 | -69.61649 | 40068 ft | 449 kts | 309° |
| 2026-05-04 11:35 | 36.37676 | -69.66411 | 40067 ft | 449 kts | 309° |
| 2026-05-04 11:36 | 36.42603 | -69.71199 | 40066 ft | 450 kts | 309° |
| 2026-05-04 11:36 | 36.47568 | -69.75975 | 40066 ft | 451 kts | 310° |
| 2026-05-04 11:37 | 36.52536 | -69.80775 | 40065 ft | 452 kts | 310° |
| 2026-05-04 11:37 | 36.57478 | -69.85571 | 40064 ft | 452 kts | 310° |
| 2026-05-04 11:38 | 36.62465 | -69.90424 | 40063 ft | 453 kts | 310° |
| 2026-05-04 11:38 | 36.67387 | -69.95224 | 40062 ft | 453 kts | 310° |
| 2026-05-04 11:39 | 36.72358 | -70.00080 | 40061 ft | 453 kts | 310° |
| 2026-05-04 11:41 | 36.89862 | -70.17246 | 40065 ft | 457 kts | 310° |
| 2026-05-04 11:41 | 36.94838 | -70.22144 | 40065 ft | 457 kts | 310° |
| 2026-05-04 11:42 | 36.99834 | -70.27072 | 40063 ft | 456 kts | 310° |
| 2026-05-04 11:42 | 37.04816 | -70.31994 | 40063 ft | 456 kts | 310° |
| 2026-05-04 11:43 | 37.09792 | -70.36917 | 40062 ft | 455 kts | 310° |
| 2026-05-04 11:43 | 37.14777 | -70.41860 | 40060 ft | 456 kts | 310° |
| 2026-05-04 11:44 | 37.19737 | -70.46785 | 40060 ft | 455 kts | 310° |
| 2026-05-04 11:44 | 37.24699 | -70.51721 | 40059 ft | 455 kts | 310° |
| 2026-05-04 11:45 | 37.29638 | -70.56642 | 40058 ft | 456 kts | 310° |
| 2026-05-04 11:45 | 37.34613 | -70.61608 | 40057 ft | 456 kts | 311° |
| 2026-05-04 11:46 | 37.39619 | -70.66614 | 40057 ft | 457 kts | 311° |
| 2026-05-04 11:46 | 37.44557 | -70.71560 | 40058 ft | 456 kts | 311° |
| 2026-05-04 11:47 | 37.49528 | -70.76516 | 40058 ft | 455 kts | 311° |
| 2026-05-04 11:47 | 37.54476 | -70.81488 | 40057 ft | 455 kts | 311° |
| 2026-05-04 11:48 | 37.59406 | -70.86465 | 40056 ft | 456 kts | 311° |
| 2026-05-04 11:48 | 37.64384 | -70.91499 | 40055 ft | 455 kts | 311° |
| 2026-05-04 11:49 | 37.69288 | -70.96464 | 40054 ft | 454 kts | 310° |
| 2026-05-04 11:49 | 37.71509 | -70.99212 | 40062 ft | 443 kts | 303° |
| 2026-05-04 11:49 | 37.73499 | -71.02176 | 40056 ft | 442 kts | 300° |
| 2026-05-04 11:50 | 37.77189 | -71.08337 | 40046 ft | 437 kts | 297° |
| 2026-05-04 11:50 | 37.80767 | -71.14493 | 40047 ft | 435 kts | 298° |
| 2026-05-04 11:51 | 37.84375 | -71.20649 | 40047 ft | 436 kts | 298° |
| 2026-05-04 11:51 | 37.87997 | -71.26816 | 40046 ft | 437 kts | 298° |
| 2026-05-04 11:52 | 37.91632 | -71.33006 | 40046 ft | 437 kts | 298° |
| 2026-05-04 11:52 | 37.95307 | -71.39183 | 40054 ft | 438 kts | 298° |
| 2026-05-04 11:53 | 37.98959 | -71.45371 | 40054 ft | 438 kts | 298° |
| 2026-05-04 11:53 | 38.02599 | -71.51573 | 40057 ft | 441 kts | 299° |
| 2026-05-04 11:55 | 38.17284 | -71.76687 | 40061 ft | 445 kts | 299° |
| 2026-05-04 11:56 | 38.20956 | -71.83033 | 40061 ft | 445 kts | 299° |
| 2026-05-04 11:56 | 38.24653 | -71.89412 | 40059 ft | 447 kts | 300° |
| 2026-05-04 11:56 | 38.26901 | -71.92188 | 40077 ft | 461 kts | 315° |
| 2026-05-04 11:57 | 38.29798 | -71.94168 | 40056 ft | 487 kts | 330° |
| 2026-05-04 11:57 | 38.33111 | -71.95232 | 40072 ft | 505 kts | 342° |
| 2026-05-04 11:57 | 38.36645 | -71.95610 | 40068 ft | 512 kts | 351° |
| 2026-05-04 11:58 | 38.43775 | -71.95299 | 40062 ft | 512 kts | 354° |
| 2026-05-04 11:58 | 38.50882 | -71.95122 | 40061 ft | 513 kts | 352° |
| 2026-05-04 11:59 | 38.58056 | -71.95041 | 40059 ft | 512 kts | 353° |
| 2026-05-04 11:59 | 38.65142 | -71.94952 | 40058 ft | 512 kts | 353° |
| 2026-05-04 12:00 | 38.72285 | -71.94857 | 40057 ft | 512 kts | 353° |
| 2026-05-04 12:00 | 38.79408 | -71.94761 | 40056 ft | 512 kts | 353° |
| 2026-05-04 12:01 | 38.86530 | -71.94665 | 40055 ft | 512 kts | 353° |
| 2026-05-04 12:02 | 39.08119 | -72.04055 | 40054 ft | 464 kts | 311° |
| 2026-05-04 12:03 | 39.13042 | -72.09417 | 40054 ft | 463 kts | 313° |
| 2026-05-04 12:03 | 39.18038 | -72.14651 | 40053 ft | 463 kts | 313° |
| 2026-05-04 12:04 | 39.23033 | -72.19920 | 40053 ft | 463 kts | 313° |
| 2026-05-04 12:04 | 39.27998 | -72.25174 | 40052 ft | 463 kts | 313° |
| 2026-05-04 12:05 | 39.32978 | -72.30454 | 40052 ft | 464 kts | 313° |
| 2026-05-04 12:05 | 39.37975 | -72.35762 | 40051 ft | 464 kts | 314° |
| 2026-05-04 12:06 | 39.42962 | -72.41061 | 40051 ft | 465 kts | 314° |
| 2026-05-04 12:06 | 39.47990 | -72.46359 | 40049 ft | 467 kts | 314° |
| 2026-05-04 12:07 | 39.53033 | -72.51718 | 40047 ft | 469 kts | 314° |
| 2026-05-04 12:07 | 39.58081 | -72.57094 | 40046 ft | 469 kts | 314° |
| 2026-05-04 12:08 | 39.63122 | -72.62450 | 40043 ft | 469 kts | 314° |
| 2026-05-04 12:08 | 39.68120 | -72.67814 | 40046 ft | 468 kts | 313° |
| 2026-05-04 12:09 | 39.73134 | -72.73213 | 40046 ft | 468 kts | 313° |
| 2026-05-04 12:09 | 39.78121 | -72.78672 | 40031 ft | 463 kts | 308° |
| 2026-05-04 12:10 | 39.80033 | -72.81957 | 40040 ft | 454 kts | 294° |
| 2026-05-04 12:10 | 39.81241 | -72.85643 | 40046 ft | 448 kts | 283° |
| 2026-05-04 12:10 | 39.82997 | -72.93452 | 40041 ft | 442 kts | 281° |
| 2026-05-04 12:11 | 39.84571 | -73.01112 | 40042 ft | 441 kts | 281° |
| 2026-05-04 12:11 | 39.86164 | -73.08899 | 40042 ft | 442 kts | 281° |
| 2026-05-04 12:12 | 39.87741 | -73.16623 | 40042 ft | 443 kts | 281° |
| 2026-05-04 12:12 | 39.89321 | -73.24385 | 40042 ft | 443 kts | 281° |
| 2026-05-04 12:14 | 39.95350 | -73.54042 | 40058 ft | 445 kts | 281° |
| 2026-05-04 12:15 | 39.96910 | -73.61864 | 40058 ft | 445 kts | 281° |
| 2026-05-04 12:15 | 39.98459 | -73.69694 | 40059 ft | 445 kts | 281° |
| 2026-05-04 12:16 | 39.99978 | -73.77523 | 40053 ft | 444 kts | 278° |
| 2026-05-04 12:16 | 40.00108 | -73.81477 | 40062 ft | 442 kts | 263° |
| 2026-05-04 12:16 | 39.99327 | -73.85405 | 40064 ft | 443 kts | 248° |
| 2026-05-04 12:17 | 39.97807 | -73.88825 | 40069 ft | 443 kts | 237° |
| 2026-05-04 12:17 | 39.95844 | -73.91923 | 40063 ft | 445 kts | 230° |
| 2026-05-04 12:17 | 39.91199 | -73.97299 | 40062 ft | 448 kts | 222° |
| 2026-05-04 12:18 | 39.86218 | -74.02231 | 40068 ft | 450 kts | 221° |
| 2026-05-04 12:18 | 39.81257 | -74.07211 | 40070 ft | 451 kts | 221° |
| 2026-05-04 12:19 | 39.76319 | -74.12234 | 40070 ft | 450 kts | 222° |
| 2026-05-04 12:19 | 39.71436 | -74.17264 | 40070 ft | 450 kts | 222° |
| 2026-05-04 12:20 | 39.66530 | -74.22315 | 40071 ft | 450 kts | 222° |
| 2026-05-04 12:20 | 39.61625 | -74.27338 | 40073 ft | 450 kts | 222° |
| 2026-05-04 12:21 | 39.56695 | -74.32372 | 40075 ft | 450 kts | 222° |
| 2026-05-04 12:21 | 39.51775 | -74.37386 | 40076 ft | 450 kts | 222° |
| 2026-05-04 12:22 | 39.46889 | -74.42355 | 40078 ft | 450 kts | 222° |
| 2026-05-04 12:22 | 39.41931 | -74.47388 | 40081 ft | 449 kts | 222° |
| 2026-05-04 12:23 | 39.37045 | -74.52338 | 40081 ft | 449 kts | 221° |
| 2026-05-04 12:23 | 39.34374 | -74.54452 | 40088 ft | 454 kts | 208° |
| 2026-05-04 12:23 | 39.31307 | -74.55532 | 40080 ft | 463 kts | 193° |
| 2026-05-04 12:24 | 39.24864 | -74.56122 | 40076 ft | 460 kts | 201° |
| 2026-05-04 12:24 | 39.21952 | -74.57771 | 40084 ft | 454 kts | 216° |
| 2026-05-04 12:24 | 39.19559 | -74.60378 | 40085 ft | 449 kts | 231° |
| 2026-05-04 12:25 | 39.17875 | -74.63706 | 40085 ft | 442 kts | 246° |
| 2026-05-04 12:25 | 39.17023 | -74.67500 | 40086 ft | 439 kts | 262° |
| 2026-05-04 12:25 | 39.17069 | -74.71366 | 40087 ft | 440 kts | 277° |
| 2026-05-04 12:25 | 39.18024 | -74.75163 | 40088 ft | 444 kts | 292° |
| 2026-05-04 12:26 | 39.19779 | -74.78417 | 40088 ft | 454 kts | 308° |
| 2026-05-04 12:26 | 39.22265 | -74.80996 | 40086 ft | 467 kts | 323° |
| 2026-05-04 12:26 | 39.25293 | -74.82640 | 40085 ft | 480 kts | 339° |
| 2026-05-04 12:26 | 39.28650 | -74.83199 | 40083 ft | 498 kts | 354° |
| 2026-05-04 12:27 | 39.32149 | -74.82603 | 40081 ft | 515 kts | 9° |
| 2026-05-04 12:27 | 39.35498 | -74.80854 | 40079 ft | 523 kts | 24° |
| 2026-05-04 12:27 | 39.38447 | -74.78050 | 40076 ft | 530 kts | 40° |
| 2026-05-04 12:27 | 39.40814 | -74.74341 | 40076 ft | 538 kts | 55° |
| 2026-05-04 12:28 | 39.42433 | -74.69966 | 40078 ft | 544 kts | 71° |
| 2026-05-04 12:28 | 39.43316 | -74.65201 | 40083 ft | 547 kts | 81° |
| 2026-05-04 12:28 | 39.44228 | -74.55420 | 40080 ft | 548 kts | 85° |
| 2026-05-04 12:29 | 39.45796 | -74.45792 | 40068 ft | 547 kts | 77° |
| 2026-05-04 12:29 | 39.48001 | -74.36498 | 40081 ft | 546 kts | 59° |
| 2026-05-04 12:30 | 39.50215 | -74.32524 | 40079 ft | 543 kts | 44° |
| 2026-05-04 12:30 | 39.53071 | -74.29376 | 40077 ft | 538 kts | 29° |
| 2026-05-04 12:30 | 39.56381 | -74.27187 | 40076 ft | 529 kts | 15° |
| 2026-05-04 12:30 | 39.59888 | -74.25929 | 40081 ft | 524 kts | 9° |
| 2026-05-04 12:31 | 39.63266 | -74.24147 | 40099 ft | 525 kts | 25° |
| 2026-05-04 12:31 | 39.66221 | -74.21321 | 40067 ft | 531 kts | 40° |
| 2026-05-04 12:31 | 39.68577 | -74.17599 | 40072 ft | 539 kts | 55° |
| 2026-05-04 12:31 | 39.70580 | -74.13463 | 40028 ft | 542 kts | 50° |
| 2026-05-04 12:32 | 39.73166 | -74.09933 | 40058 ft | 540 kts | 37° |
| 2026-05-04 12:32 | 39.79124 | -74.04130 | 40075 ft | 537 kts | 34° |
| 2026-05-04 12:33 | 39.84945 | -73.98097 | 40071 ft | 533 kts | 30° |
| 2026-05-04 12:33 | 39.91384 | -73.93344 | 40062 ft | 530 kts | 22° |
| 2026-05-04 12:34 | 39.97888 | -73.88840 | 40062 ft | 528 kts | 24° |
| 2026-05-04 12:34 | 40.04439 | -73.85344 | 40066 ft | 521 kts | 11° |
| 2026-05-04 12:35 | 40.11381 | -73.83182 | 40059 ft | 515 kts | 6° |
| 2026-05-04 12:35 | 40.18401 | -73.81285 | 40058 ft | 514 kts | 7° |
| 2026-05-04 12:36 | 40.25386 | -73.79307 | 40050 ft | 514 kts | 7° |
| 2026-05-04 12:36 | 40.32328 | -73.77312 | 40043 ft | 500 kts | 7° |
| 2026-05-04 12:36 | 40.35647 | -73.76356 | 40042 ft | 488 kts | 7° |
| 2026-05-04 12:37 | 40.38903 | -73.75426 | 40043 ft | 484 kts | 7° |
| 2026-05-04 12:37 | 40.42212 | -73.74474 | 39913 ft | 479 kts | 7° |
| 2026-05-04 12:37 | 40.45420 | -73.73549 | 39529 ft | 474 kts | 6° |
| 2026-05-04 12:37 | 40.48664 | -73.72659 | 39134 ft | 470 kts | 9° |
| 2026-05-04 12:38 | 40.51740 | -73.71259 | 38624 ft | 475 kts | 18° |
| 2026-05-04 12:38 | 40.54681 | -73.69177 | 38208 ft | 476 kts | 28° |
| 2026-05-04 12:38 | 40.57330 | -73.66513 | 37784 ft | 478 kts | 38° |
| 2026-05-04 12:38 | 40.59611 | -73.63359 | 37353 ft | 478 kts | 47° |
| 2026-05-04 12:39 | 40.61481 | -73.59797 | 36925 ft | 478 kts | 57° |
| 2026-05-04 12:39 | 40.62920 | -73.55864 | 36464 ft | 477 kts | 67° |
| 2026-05-04 12:39 | 40.63868 | -73.51699 | 36018 ft | 475 kts | 77° |
| 2026-05-04 12:39 | 40.64339 | -73.47405 | 35579 ft | 471 kts | 85° |
| 2026-05-04 12:40 | 40.64572 | -73.43121 | 35142 ft | 468 kts | 87° |
| 2026-05-04 12:40 | 40.64739 | -73.38855 | 34717 ft | 464 kts | 88° |
| 2026-05-04 12:40 | 40.64900 | -73.34624 | 34267 ft | 461 kts | 88° |
| 2026-05-04 12:40 | 40.65049 | -73.30426 | 33812 ft | 458 kts | 88° |
| 2026-05-04 12:41 | 40.65194 | -73.26243 | 33446 ft | 453 kts | 88° |
| 2026-05-04 12:41 | 40.65335 | -73.22116 | 33017 ft | 450 kts | 88° |
| 2026-05-04 12:41 | 40.65475 | -73.18063 | 32602 ft | 447 kts | 88° |
| 2026-05-04 12:41 | 40.65617 | -73.13990 | 32188 ft | 443 kts | 88° |
| 2026-05-04 12:42 | 40.65745 | -73.09947 | 31782 ft | 440 kts | 88° |
| 2026-05-04 12:42 | 40.65868 | -73.05944 | 31375 ft | 436 kts | 88° |
| 2026-05-04 12:42 | 40.65990 | -73.01967 | 30959 ft | 433 kts | 88° |
| 2026-05-04 12:42 | 40.66105 | -72.98029 | 30565 ft | 429 kts | 88° |
| 2026-05-04 12:43 | 40.66214 | -72.94097 | 30082 ft | 428 kts | 88° |
| 2026-05-04 12:43 | 40.66324 | -72.90142 | 28943 ft | 443 kts | 88° |
| 2026-05-04 12:43 | 40.66444 | -72.85970 | 27258 ft | 469 kts | 88° |
| 2026-05-04 12:43 | 40.66562 | -72.81525 | 25402 ft | 497 kts | 88° |
| 2026-05-04 12:44 | 40.66390 | -72.76989 | 24329 ft | 501 kts | 97° |
| 2026-05-04 12:44 | 40.65680 | -72.72522 | 23702 ft | 491 kts | 107° |
| 2026-05-04 12:44 | 40.64502 | -72.68350 | 23050 ft | 482 kts | 116° |
| 2026-05-04 12:44 | 40.62887 | -72.64530 | 22371 ft | 472 kts | 126° |
| 2026-05-04 12:45 | 40.60889 | -72.61165 | 21682 ft | 463 kts | 135° |
| 2026-05-04 12:45 | 40.58549 | -72.58297 | 20946 ft | 454 kts | 145° |
| 2026-05-04 12:45 | 40.55956 | -72.56021 | 20235 ft | 444 kts | 154° |
| 2026-05-04 12:45 | 40.53334 | -72.54447 | 19584 ft | 434 kts | 164° |
| 2026-05-04 12:46 | 40.50463 | -72.53421 | 18910 ft | 423 kts | 174° |
| 2026-05-04 12:46 | 40.47560 | -72.53075 | 18364 ft | 414 kts | 184° |
| 2026-05-04 12:46 | 40.44699 | -72.53411 | 17946 ft | 410 kts | 194° |
| 2026-05-04 12:46 | 40.41991 | -72.54403 | 17708 ft | 400 kts | 205° |
| 2026-05-04 12:47 | 40.39534 | -72.55971 | 17452 ft | 392 kts | 215° |
| 2026-05-04 12:47 | 40.37360 | -72.58084 | 17174 ft | 386 kts | 225° |
| 2026-05-04 12:47 | 40.35571 | -72.60632 | 16904 ft | 380 kts | 235° |
| 2026-05-04 12:47 | 40.34191 | -72.63567 | 16618 ft | 375 kts | 245° |
| 2026-05-04 12:48 | 40.33288 | -72.66746 | 16364 ft | 371 kts | 256° |
| 2026-05-04 12:48 | 40.32880 | -72.70086 | 16111 ft | 369 kts | 266° |
| 2026-05-04 12:48 | 40.32981 | -72.73418 | 15861 ft | 367 kts | 277° |
| 2026-05-04 12:48 | 40.33583 | -72.76675 | 15586 ft | 368 kts | 287° |
| 2026-05-04 12:49 | 40.34657 | -72.79692 | 15346 ft | 370 kts | 297° |
| 2026-05-04 12:49 | 40.36195 | -72.82430 | 15105 ft | 372 kts | 308° |
| 2026-05-04 12:49 | 40.38122 | -72.84738 | 14873 ft | 375 kts | 318° |
| 2026-05-04 12:49 | 40.40240 | -72.86673 | 14659 ft | 375 kts | 322° |
| 2026-05-04 12:50 | 40.42459 | -72.88533 | 14425 ft | 375 kts | 323° |
| 2026-05-04 12:50 | 40.44647 | -72.90338 | 14211 ft | 374 kts | 323° |
| 2026-05-04 12:50 | 40.46828 | -72.92138 | 13796 ft | 369 kts | 323° |
| 2026-05-04 12:50 | 40.48993 | -72.93918 | 13098 ft | 367 kts | 323° |
| 2026-05-04 12:51 | 40.51158 | -72.95695 | 12491 ft | 363 kts | 323° |
| 2026-05-04 12:51 | 40.53284 | -72.97435 | 11980 ft | 357 kts | 323° |
| 2026-05-04 12:51 | 40.55398 | -72.99061 | 11495 ft | 353 kts | 328° |
| 2026-05-04 12:51 | 40.57686 | -73.00297 | 11049 ft | 350 kts | 335° |
| 2026-05-04 12:52 | 40.59997 | -73.01340 | 10889 ft | 346 kts | 336° |
| 2026-05-04 12:52 | 40.62197 | -73.02303 | 10815 ft | 330 kts | 336° |
| 2026-05-04 12:52 | 40.64330 | -73.03222 | 10717 ft | 315 kts | 336° |
| 2026-05-04 12:52 | 40.66366 | -73.04089 | 10632 ft | 301 kts | 336° |
| 2026-05-04 12:53 | 40.68305 | -73.04901 | 10554 ft | 285 kts | 336° |
| 2026-05-04 12:53 | 40.70164 | -73.05665 | 10505 ft | 279 kts | 336° |
| 2026-05-04 12:53 | 40.71979 | -73.06403 | 10410 ft | 278 kts | 336° |
| 2026-05-04 12:53 | 40.73808 | -73.07146 | 10389 ft | 278 kts | 337° |
| 2026-05-04 12:54 | 40.75055 | -73.07603 | 10317 ft | 278 kts | 339° |
| 2026-05-04 12:54 | 40.77526 | -73.08362 | 10148 ft | 279 kts | 341° |
| 2026-05-04 12:54 | 40.79408 | -73.08944 | 9772 ft | 278 kts | 340° |
| 2026-05-04 12:54 | 40.81295 | -73.09537 | 9401 ft | 278 kts | 341° |
| 2026-05-04 12:55 | 40.83176 | -73.10129 | 9020 ft | 277 kts | 340° |
| 2026-05-04 12:55 | 40.85057 | -73.10717 | 8647 ft | 277 kts | 341° |
| 2026-05-04 12:55 | 40.86889 | -73.11423 | 8266 ft | 272 kts | 330° |
| 2026-05-04 12:55 | 40.88392 | -73.12837 | 7965 ft | 265 kts | 313° |
| 2026-05-04 12:56 | 40.89698 | -73.14512 | 7680 ft | 258 kts | 306° |
| 2026-05-04 12:56 | 40.90601 | -73.16524 | 7426 ft | 252 kts | 291° |
| 2026-05-04 12:56 | 40.91263 | -73.18556 | 7169 ft | 247 kts | 288° |
| 2026-05-04 12:56 | 40.91642 | -73.20761 | 6919 ft | 243 kts | 270° |
| 2026-05-04 12:57 | 40.91545 | -73.22216 | 6840 ft | 240 kts | 261° |
| 2026-05-04 12:57 | 40.91118 | -73.25065 | 6672 ft | 236 kts | 257° |
| 2026-05-04 12:57 | 40.90756 | -73.27169 | 6575 ft | 234 kts | 257° |
| 2026-05-04 12:57 | 40.90395 | -73.29263 | 6470 ft | 232 kts | 257° |
| 2026-05-04 12:58 | 40.90289 | -73.31371 | 6364 ft | 233 kts | 275° |
| 2026-05-04 12:58 | 40.90812 | -73.33420 | 6268 ft | 235 kts | 289° |
| 2026-05-04 12:58 | 40.91550 | -73.35369 | 6134 ft | 239 kts | 293° |
| 2026-05-04 12:58 | 40.92353 | -73.37284 | 5972 ft | 238 kts | 294° |
| 2026-05-04 12:59 | 40.93161 | -73.39158 | 5777 ft | 237 kts | 295° |
| 2026-05-04 12:59 | 40.93971 | -73.41034 | 5601 ft | 235 kts | 295° |
| 2026-05-04 12:59 | 40.94725 | -73.42935 | 5410 ft | 225 kts | 288° |
| 2026-05-04 12:59 | 40.95072 | -73.44884 | 5229 ft | 212 kts | 273° |
| 2026-05-04 13:00 | 40.95014 | -73.46785 | 5055 ft | 204 kts | 261° |
| 2026-05-04 13:00 | 40.94637 | -73.48548 | 4877 ft | 197 kts | 249° |
| 2026-05-04 13:00 | 40.94235 | -73.49610 | 4762 ft | 193 kts | 242° |
| 2026-05-04 13:00 | 40.93473 | -73.51047 | 4585 ft | 189 kts | 234° |
| 2026-05-04 13:01 | 40.92577 | -73.52293 | 4409 ft | 185 kts | 227° |
| 2026-05-04 13:01 | 40.91600 | -73.53392 | 4232 ft | 184 kts | 223° |
| 2026-05-04 13:01 | 40.90574 | -73.54419 | 4063 ft | 185 kts | 221° |
| 2026-05-04 13:01 | 40.89540 | -73.55455 | 3886 ft | 186 kts | 221° |
| 2026-05-04 13:02 | 40.88493 | -73.56458 | 3727 ft | 186 kts | 220° |
| 2026-05-04 13:02 | 40.87427 | -73.57413 | 3527 ft | 185 kts | 218° |
| 2026-05-04 13:02 | 40.86349 | -73.58320 | 3369 ft | 186 kts | 217° |
| 2026-05-04 13:02 | 40.85231 | -73.59224 | 3223 ft | 186 kts | 216° |
| 2026-05-04 13:03 | 40.84125 | -73.60102 | 3044 ft | 184 kts | 216° |
| 2026-05-04 13:03 | 40.83039 | -73.60963 | 2958 ft | 181 kts | 216° |
| 2026-05-04 13:03 | 40.81970 | -73.61806 | 2990 ft | 176 kts | 216° |
| 2026-05-04 13:03 | 40.80918 | -73.62634 | 3002 ft | 181 kts | 216° |
| 2026-05-04 13:04 | 40.79840 | -73.63481 | 2989 ft | 178 kts | 216° |
| 2026-05-04 13:04 | 40.78774 | -73.64319 | 2982 ft | 178 kts | 216° |
| 2026-05-04 13:04 | 40.77714 | -73.65153 | 2990 ft | 175 kts | 216° |
| 2026-05-04 13:04 | 40.76684 | -73.65962 | 2762 ft | 170 kts | 216° |
| 2026-05-04 13:05 | 40.75680 | -73.66748 | 2524 ft | 167 kts | 216° |
| 2026-05-04 13:05 | 40.74694 | -73.67522 | 2298 ft | 160 kts | 216° |
| 2026-05-04 13:05 | 40.73751 | -73.68261 | 2106 ft | 156 kts | 215° |
| 2026-05-04 13:05 | 40.72824 | -73.68988 | 1888 ft | 155 kts | 215° |
| 2026-05-04 13:06 | 40.71899 | -73.69713 | 1680 ft | 154 kts | 215° |
| 2026-05-04 13:06 | 40.71000 | -73.70417 | 1480 ft | 145 kts | 215° |
| 2026-05-04 13:06 | 40.70172 | -73.71066 | 1307 ft | 136 kts | 215° |
| 2026-05-04 13:06 | 40.69379 | -73.71687 | 1123 ft | 129 kts | 215° |
| 2026-05-04 13:07 | 40.68616 | -73.72285 | 976 ft | 128 kts | 214° |
| 2026-05-04 13:07 | 40.67846 | -73.72888 | 778 ft | 125 kts | 213° |
| 2026-05-04 13:07 | 40.67112 | -73.73462 | 609 ft | 124 kts | 212° |
| 2026-05-04 13:07 | 40.66345 | -73.74062 | 447 ft | 128 kts | 211° |
| 2026-05-04 13:08 | 40.65597 | -73.74647 | 272 ft | 126 kts | 211° |
| 2026-05-04 13:08 | 40.64840 | -73.75239 | 112 ft | 127 kts | 211° |
| 2026-05-04 13:08 | 40.64097 | -73.75820 | 28 ft | 120 kts | 211° |
| 2026-05-04 13:08 | 40.63580 | -73.76224 | 27 ft | 44 kts | 211° |
| 2026-05-04 13:09 | 40.63411 | -73.76356 | 27 ft | 11 kts | 211° |
| 2026-05-04 13:09 | 40.63349 | -73.76404 | 27 ft | 13 kts | 211° |
| 2026-05-04 13:09 | 40.63204 | -73.76518 | 27 ft | 30 kts | 211° |
| 2026-05-04 13:09 | 40.63054 | -73.76656 | 27 ft | 24 kts | 219° |
| 2026-05-04 13:10 | 40.62969 | -73.76797 | 27 ft | 16 kts | 243° |
| 2026-05-04 13:10 | 40.62932 | -73.76922 | 27 ft | 12 kts | 264° |
| 2026-05-04 13:10 | 40.62952 | -73.77022 | 27 ft | 11 kts | 301° |
| 2026-05-04 13:10 | 40.62990 | -73.77108 | 27 ft | 10 kts | 300° |
| 2026-05-04 13:11 | 40.63026 | -73.77188 | 27 ft | 10 kts | 300° |
| 2026-05-04 13:11 | 40.63059 | -73.77263 | 27 ft | 9 kts | 301° |
| 2026-05-04 13:11 | 40.63092 | -73.77334 | 27 ft | 9 kts | 301° |
| 2026-05-04 13:11 | 40.63122 | -73.77400 | 27 ft | 8 kts | 301° |
| 2026-05-04 13:12 | 40.63152 | -73.77464 | 27 ft | 8 kts | 301° |
| 2026-05-04 13:12 | 40.63179 | -73.77523 | 27 ft | 7 kts | 301° |
| 2026-05-04 13:12 | 40.63204 | -73.77578 | 27 ft | 7 kts | 301° |
| 2026-05-04 13:12 | 40.63229 | -73.77631 | 27 ft | 7 kts | 301° |
| 2026-05-04 13:13 | 40.63259 | -73.77697 | 27 ft | 9 kts | 301° |
| 2026-05-04 13:13 | 40.63297 | -73.77780 | 27 ft | 12 kts | 301° |
| 2026-05-04 13:13 | 40.63343 | -73.77881 | 27 ft | 14 kts | 301° |
| 2026-05-04 13:13 | 40.63398 | -73.78000 | 27 ft | 16 kts | 302° |
| 2026-05-04 13:14 | 40.63453 | -73.78114 | 27 ft | 13 kts | 307° |
| 2026-05-04 13:14 | 40.63521 | -73.78179 | 27 ft | 12 kts | 340° |
| 2026-05-04 13:14 | 40.63598 | -73.78213 | 27 ft | 11 kts | 341° |
| 2026-05-04 13:14 | 40.63668 | -73.78248 | 27 ft | 10 kts | 339° |
| 2026-05-04 13:15 | 40.63733 | -73.78284 | 27 ft | 10 kts | 333° |
| 2026-05-04 13:15 | 40.63792 | -73.78324 | 27 ft | 9 kts | 333° |
| 2026-05-04 13:15 | 40.63848 | -73.78361 | 27 ft | 9 kts | 332° |
| 2026-05-04 13:15 | 40.63901 | -73.78397 | 27 ft | 8 kts | 333° |
| 2026-05-04 13:16 | 40.63933 | -73.78450 | 27 ft | 8 kts | 261° |
| 2026-05-04 13:16 | 40.63923 | -73.78481 | 27 ft | 3 kts | 246° |
| 2026-05-04 13:16 | 40.63921 | -73.78486 | 27 ft | 0 kts | 246° |